Sunday, June 26, 2016, 5:56 AM EDT

KNHK, Nas Patuxent River Md

Location: Patuxent River, MD, United States Lat: 38.3
Local Time: 5:56 AM EDT ( 9:56 GMT) Lon: -76.4
Time Zone: US/Eastern Elev: 39 ft

Show me the last for .
Show Decoded

2016-06-26 04:52 METAR KNHK 260852Z AUTO 27003KT 10SM CLR 17/16 A3023 RMK AO2 SLP236 T01720161
                 53016 PWINO =
2016-06-26 03:52 METAR KNHK 260752Z AUTO 24004KT 10SM CLR 17/16 A3020 RMK AO2 SLP227 T01720156
                 PWINO =
2016-06-26 02:52 METAR KNHK 260652Z AUTO 00000KT 10SM CLR 17/15 A3019 RMK AO2 SLP224 T01720150
                 PWINO =
2016-06-26 01:52 METAR KNHK 260552Z AUTO 20003KT 10SM CLR 17/15 A3018 RMK AO2 SLP220 T01720150
                 10250 20167 58006 PWINO =
2016-06-26 00:52 METAR KNHK 260452Z AUTO 19004KT 10SM CLR 18/16 A3019 RMK AO2 SLP225 T01830156
                 402830172 PWINO =
2016-06-25 23:52 METAR KNHK 260352Z AUTO 12006KT 10SM CLR 22/14 A3020 RMK AO2 SLP226 T02170144
                 PWINO =
2016-06-25 22:52 METAR KNHK 260252Z AUTO 13005KT 10SM CLR 22/13 A3020 RMK AO2 SLP227 T02220133
                 51010 PWINO =
2016-06-25 21:52 METAR KNHK 260152Z AUTO 09006KT 10SM CLR 23/12 A3020 RMK AO2 SLP227 T02280122
                 PWINO =
2016-06-25 20:52 METAR KNHK 260052Z AUTO 09008KT 10SM CLR 24/11 A3019 RMK AO2 SLP222 T02390106
                 PWINO =
2016-06-25 19:52 METAR KNHK 252352Z AUTO 10009KT 10SM CLR 25/12 A3017 RMK AO2 SLP216 T02500117
                 10283 20250 52005 PWINO =
2016-06-25 18:52 METAR KNHK 252252Z AUTO 06006KT 10SM CLR 27/15 A3017 RMK AO2 SLP215 T02720150
                 PWINO =
2016-06-25 17:52 METAR KNHK 252152Z VRB04KT 10SM FEW025 FEW040 27/16 A3016 RMK AO2 SLP212
                 T02720156 =
2016-06-25 16:52 METAR KNHK 252052Z 01004KT 10SM FEW040 28/16 A3015 RMK AO2 SLP211 T02780161
                 58003 =
2016-06-25 15:52 METAR KNHK 251952Z 02006KT 10SM FEW040 28/17 A3017 RMK AO2 SLP215 T02780167 =
2016-06-25 14:52 METAR KNHK 251852Z 02009KT 10SM SCT040 28/17 A3017 RMK AO2 SLP215 T02830172 =
2016-06-25 13:52 METAR KNHK 251752Z 03008KT 10SM FEW040 FEW250 27/17 A3016 RMK AO2 SLP214
                 T02720167 10272 20222 58004 =
2016-06-25 12:52 METAR KNHK 251652Z 02006KT 10SM FEW025 FEW040 SCT250 27/17 A3017 RMK AO2 SLP215
                 T02670172 =
2016-06-25 11:52 METAR KNHK 251552Z 06009KT 10SM SCT025 26/17 A3018 RMK AO2 SLP219 T02560167 =
2016-06-25 10:52 METAR KNHK 251452Z 05007KT 10SM SCT022 BKN035 BKN250 25/17 A3017 RMK AO2 SLP218
                 T02500172 51016 =
2016-06-25 09:52 METAR KNHK 251352Z 05008KT 10SM FEW018 BKN035 BKN250 24/17 A3016 RMK AO2 SLP213
                 T02390172 =
2016-06-25 08:52 METAR KNHK 251252Z 08008KT 10SM FEW015 SCT022 BKN032 BKN250 23/17 A3015 RMK AO2
                 SLP209 T02280172 =
2016-06-25 08:13 METAR KNHK 251213Z 06008KT 10SM BKN013 OVC023 22/18 A3014 RMK AO2 T02220183 =
2016-06-25 07:52 METAR KNHK 251152Z 06007KT 10SM SCT012 BKN016 OVC024 22/19 A3013 RMK AO2 SLP202
                 T02170189 10217 20211 53019 =
2016-06-25 07:02 METAR KNHK 251102Z 06008KT 10SM SCT010 OVC016 22/19 A3011 RMK AO2 T02170189 =
2016-06-25 06:52 METAR KNHK 251052Z AUTO 06008KT 10SM BKN012 OVC017 22/18 A3011 RMK AO2 SLP196
                 T02170183 PWINO =
2016-06-25 06:39 METAR KNHK 251039Z AUTO 05007KT 10SM SCT011 OVC017 22/18 A3011 RMK AO2 T02170183
                 PWINO =

Support USWX by starting your Amazon purchase here.